Time;durP1;ratioP1;P1;durP2;ratioP2;P2;SDS_P1;SDS_P2;PMS_P1;PMS_P2;Temp;Humidity;BMP_temperature;BMP_pressure;BME280_temperature;BME280_humidity;BME280_pressure;Samples;Min_cycle;Max_cycle;Signal;HPM_P1;HPM_P2
2022/10/26 00:02:19;;;;;;;11.75;5.13;;;14.60;98.30;;;;;;5033196;28;20117;-72
2022/10/26 00:04:44;;;;;;;7.40;4.50;;;14.50;98.30;;;;;;5033491;28;20034;-70
2022/10/26 00:07:10;;;;;;;9.82;4.40;;;14.50;98.40;;;;;;5033448;28;20029;-70
2022/10/26 00:09:36;;;;;;;11.02;4.70;;;14.50;98.40;;;;;;5033649;28;20025;-70
2022/10/26 00:12:02;;;;;;;7.88;4.40;;;14.50;98.40;;;;;;5033571;28;20060;-70
2022/10/26 00:14:28;;;;;;;9.52;4.25;;;14.60;98.40;;;;;;5033273;28;20025;-70
2022/10/26 00:16:53;;;;;;;7.97;4.13;;;14.60;98.30;;;;;;5033620;28;20431;-70
2022/10/26 00:19:19;;;;;;;6.47;4.40;;;14.50;98.30;;;;;;5033224;28;20022;-70
2022/10/26 00:21:45;;;;;;;14.07;5.10;;;14.50;98.40;;;;;;5033252;28;20067;-70
2022/10/26 00:24:11;;;;;;;9.30;4.20;;;14.50;98.30;;;;;;5033571;28;20053;-70
2022/10/26 00:26:37;;;;;;;12.05;5.45;;;14.50;98.40;;;;;;5033216;28;20036;-72
2022/10/26 00:29:03;;;;;;;11.38;4.97;;;14.50;98.50;;;;;;5032832;28;20447;-71
2022/10/26 00:31:29;;;;;;;7.55;4.30;;;14.50;98.50;;;;;;5032416;28;20025;-71
2022/10/26 00:33:55;;;;;;;8.40;4.38;;;14.50;98.60;;;;;;5032905;28;20025;-71
2022/10/26 00:36:22;;;;;;;11.27;4.32;;;14.50;98.60;;;;;;5033625;28;20018;-71
2022/10/26 00:38:53;;;;;;;7.28;4.20;;;14.40;98.60;;;;;;5032856;28;20037;-71
2022/10/26 00:41:25;;;;;;;6.03;4.05;;;14.40;98.70;;;;;;5032152;28;20493;-71
2022/10/26 00:43:52;;;;;;;8.05;4.35;;;14.40;98.70;;;;;;5033343;28;20033;-71
2022/10/26 00:46:32;;;;;;;8.77;4.63;;;14.40;98.70;;;;;;5033244;28;20037;-71
2022/10/26 00:49:02;;;;;;;9.32;4.57;;;14.40;98.80;;;;;;5033105;28;20029;-71
2022/10/26 00:51:45;;;;;;;10.20;4.72;;;14.30;98.90;;;;;;5035743;28;20030;-68
2022/10/26 00:54:17;;;;;;;8.32;4.07;;;14.40;98.90;;;;;;5047336;28;20029;-71
2022/10/26 00:56:44;;;;;;;10.50;4.57;;;14.30;98.80;;;;;;5044424;28;20476;-71
2022/10/26 00:59:13;;;;;;;11.77;4.85;;;14.30;98.90;;;;;;5033239;28;20322;-72
2022/10/26 01:01:42;;;;;;;12.57;4.70;;;14.30;98.90;;;;;;5032880;28;20029;-72
2022/10/26 01:04:07;;;;;;;8.48;4.90;;;14.30;99.00;;;;;;5032722;28;20040;-72
2022/10/26 01:06:35;;;;;;;7.43;4.28;;;14.20;99.10;;;;;;5032959;28;20029;-72
2022/10/26 01:09:01;;;;;;;7.50;3.92;;;14.20;99.10;;;;;;5033132;28;20022;-72
2022/10/26 01:11:27;;;;;;;9.52;4.93;;;14.20;99.10;;;;;;5032896;28;20109;-72
2022/10/26 01:13:53;;;;;;;7.82;4.45;;;14.20;99.10;;;;;;5032747;28;20060;-72
2022/10/26 01:16:34;;;;;;;8.55;4.75;;;14.20;99.20;;;;;;5032558;28;20021;-72
2022/10/26 01:19:28;;;;;;;9.63;4.32;;;14.20;99.20;;;;;;5032703;28;20100;-72
2022/10/26 01:22:06;;;;;;;9.77;4.45;;;14.20;99.20;;;;;;5032965;28;20027;-72
2022/10/26 01:25:10;;;;;;;13.70;5.07;;;14.20;99.20;;;;;;5032941;28;20049;-72
2022/10/26 01:27:41;;;;;;;10.85;4.13;;;14.20;99.20;;;;;;5032701;28;20025;-72
2022/10/26 01:30:20;;;;;;;7.90;4.13;;;14.20;99.30;;;;;;5032409;28;20045;-71
2022/10/26 01:32:59;;;;;;;8.77;4.20;;;14.20;99.40;;;;;;5033154;28;20117;-71
2022/10/26 01:35:31;;;;;;;10.15;4.13;;;14.10;99.40;;;;;;5034695;28;20366;-71
2022/10/26 01:38:08;;;;;;;14.48;4.72;;;14.10;99.40;;;;;;5036093;28;20030;-71
2022/10/26 01:40:40;;;;;;;14.80;4.50;;;14.10;99.50;;;;;;5036359;28;20098;-72
2022/10/26 01:43:09;;;;;;;9.70;3.90;;;14.10;99.60;;;;;;5036132;28;20484;-72
2022/10/26 01:45:38;;;;;;;9.23;3.97;;;14.00;99.70;;;;;;5037259;28;20029;-71
2022/10/26 01:48:04;;;;;;;9.43;4.28;;;14.10;99.80;;;;;;5040688;28;20022;-71
2022/10/26 01:50:31;;;;;;;7.10;4.30;;;14.10;99.80;;;;;;5057716;28;20044;-71
2022/10/26 01:52:57;;;;;;;7.70;4.30;;;14.00;99.80;;;;;;5052426;28;20069;-71
2022/10/26 01:55:38;;;;;;;7.85;4.32;;;14.00;99.80;;;;;;5036414;28;20045;-71
2022/10/26 01:58:30;;;;;;;9.27;4.30;;;14.00;99.90;;;;;;5035561;28;20029;-71
2022/10/26 02:01:28;;;;;;;9.85;3.95;;;14.00;99.90;;;;;;5035733;28;20036;-71
2022/10/26 02:04:25;;;;;;;8.52;3.90;;;14.00;99.90;;;;;;5036038;28;20033;-71
2022/10/26 02:07:05;;;;;;;12.10;3.72;;;14.00;99.90;;;;;;5035553;28;20079;-71
2022/10/26 02:09:55;;;;;;;10.57;4.13;;;14.00;99.90;;;;;;5035778;28;20392;-71
2022/10/26 02:12:48;;;;;;;6.72;3.75;;;14.10;99.90;;;;;;5035386;28;20037;-71
2022/10/26 02:15:43;;;;;;;10.52;4.18;;;14.10;99.90;;;;;;5035383;28;20498;-71
2022/10/26 02:18:09;;;;;;;11.70;4.90;;;14.10;99.90;;;;;;5035718;28;20041;-71
2022/10/26 02:20:44;;;;;;;13.45;4.78;;;14.20;99.80;;;;;;5035583;28;20358;-71
2022/10/26 02:23:11;;;;;;;10.40;4.13;;;14.20;99.80;;;;;;5035394;28;20380;-71
2022/10/26 02:25:45;;;;;;;11.68;4.20;;;14.10;99.80;;;;;;5035249;28;20053;-72
2022/10/26 02:28:16;;;;;;;11.07;5.15;;;14.10;99.80;;;;;;5035351;28;20029;-71
2022/10/26 02:30:42;;;;;;;6.47;4.22;;;14.10;99.90;;;;;;5035161;28;20082;-71
2022/10/26 02:33:11;;;;;;;11.13;5.00;;;14.10;99.90;;;;;;5035354;28;20046;-71
2022/10/26 02:35:39;;;;;;;9.60;4.22;;;14.10;99.90;;;;;;5035307;28;20025;-71
2022/10/26 02:38:08;;;;;;;10.55;4.82;;;14.10;99.90;;;;;;5035291;28;20354;-71
2022/10/26 02:40:36;;;;;;;11.63;4.50;;;14.10;99.90;;;;;;5034727;28;20105;-71
2022/10/26 02:43:09;;;;;;;7.15;4.35;;;14.10;99.90;;;;;;5034888;28;20037;-71
2022/10/26 02:45:44;;;;;;;7.57;4.00;;;14.10;99.90;;;;;;5044464;28;20009;-71
2022/10/26 02:48:10;;;;;;;10.82;5.13;;;14.10;99.90;;;;;;5055532;28;20053;-71
2022/10/26 02:51:19;;;;;;;12.43;4.85;;;14.10;99.90;;;;;;5043313;28;20032;-71
2022/10/26 02:54:00;;;;;;;9.27;4.68;;;14.10;99.90;;;;;;5012783;28;20033;-71
2022/10/26 02:56:46;;;;;;;10.52;4.47;;;14.10;99.90;;;;;;5012948;28;20030;-71
2022/10/26 02:59:13;;;;;;;7.32;4.05;;;14.10;99.90;;;;;;5028686;28;20038;-71
2022/10/26 03:01:40;;;;;;;13.45;4.82;;;14.00;99.90;;;;;;5034461;28;20473;-72
2022/10/26 03:04:05;;;;;;;11.07;4.28;;;14.00;99.90;;;;;;5034719;28;20100;-71
2022/10/26 03:06:31;;;;;;;10.10;4.53;;;14.00;99.90;;;;;;5034765;28;20413;-71
2022/10/26 03:08:57;;;;;;;13.30;4.25;;;14.00;99.90;;;;;;5034471;28;20018;-71
2022/10/26 03:11:22;;;;;;;11.07;4.45;;;14.00;99.90;;;;;;5034620;28;20071;-72
2022/10/26 03:13:48;;;;;;;11.48;4.30;;;13.90;99.90;;;;;;5034466;28;20044;-72
2022/10/26 03:16:13;;;;;;;9.15;4.47;;;13.90;99.90;;;;;;5034242;28;20036;-72
2022/10/26 03:18:39;;;;;;;8.27;4.30;;;13.90;99.90;;;;;;5034464;28;20026;-72
2022/10/26 03:21:05;;;;;;;8.20;4.45;;;14.00;99.90;;;;;;5034106;28;20474;-72
2022/10/26 03:23:30;;;;;;;10.85;4.90;;;14.00;99.90;;;;;;5034471;28;20037;-72
2022/10/26 03:25:59;;;;;;;11.55;4.68;;;14.00;99.90;;;;;;5034420;28;20014;-72
2022/10/26 03:28:25;;;;;;;13.30;5.30;;;14.00;99.90;;;;;;5033944;28;20493;-72
2022/10/26 03:30:51;;;;;;;7.03;4.47;;;14.00;99.90;;;;;;5034140;28;20033;-72
2022/10/26 03:33:16;;;;;;;12.63;4.65;;;14.00;99.90;;;;;;5034031;28;20476;-71
2022/10/26 03:35:42;;;;;;;9.65;4.82;;;14.00;99.90;;;;;;5033896;28;20087;-72
2022/10/26 03:38:09;;;;;;;10.90;5.35;;;14.00;99.90;;;;;;5034205;28;20032;-72
2022/10/26 03:40:35;;;;;;;9.63;4.55;;;14.00;99.90;;;;;;5034424;28;20025;-72
2022/10/26 03:43:01;;;;;;;11.05;4.30;;;14.00;99.90;;;;;;5046786;28;20037;-70
2022/10/26 03:45:27;;;;;;;10.00;4.70;;;14.00;99.90;;;;;;5054661;28;20040;-71
2022/10/26 03:47:52;;;;;;;8.57;4.38;;;14.00;99.90;;;;;;5038259;28;20026;-72
2022/10/26 03:54:08;;;;;;;9.15;4.28;;;14.00;99.90;;;;;;5034034;28;20087;-72
2022/10/26 03:56:33;;;;;;;8.93;4.30;;;14.00;99.90;;;;;;5033542;28;20033;-71
2022/10/26 03:58:59;;;;;;;9.85;4.47;;;14.10;99.90;;;;;;5033230;28;20369;-71
2022/10/26 04:01:24;;;;;;;9.32;4.65;;;14.00;99.90;;;;;;5033479;28;20057;-71
2022/10/26 04:03:50;;;;;;;9.77;4.30;;;14.00;99.90;;;;;;5033696;28;20018;-72
2022/10/26 04:06:16;;;;;;;7.88;4.32;;;14.00;99.90;;;;;;5033689;28;20079;-72
2022/10/26 04:08:41;;;;;;;10.30;4.45;;;14.10;99.90;;;;;;5033382;28;20022;-71
2022/10/26 04:11:07;;;;;;;11.40;4.93;;;14.10;99.90;;;;;;5033259;28;20057;-71
2022/10/26 04:13:32;;;;;;;8.93;4.40;;;14.00;99.90;;;;;;5033077;28;20105;-72
2022/10/26 04:15:58;;;;;;;7.68;4.10;;;14.00;99.90;;;;;;5033238;28;20044;-72
2022/10/26 04:18:23;;;;;;;13.07;5.10;;;14.10;99.90;;;;;;5033676;28;20037;-72
2022/10/26 04:20:49;;;;;;;11.50;4.50;;;14.10;99.90;;;;;;5033543;28;20477;-72
2022/10/26 04:23:16;;;;;;;8.20;4.70;;;14.10;99.90;;;;;;5033436;28;20025;-71
2022/10/26 04:25:43;;;;;;;11.27;4.47;;;14.00;99.90;;;;;;5033162;28;20025;-72
2022/10/26 04:28:10;;;;;;;12.57;4.20;;;14.00;99.90;;;;;;5032981;28;20030;-71
2022/10/26 04:30:36;;;;;;;10.20;4.35;;;14.00;99.90;;;;;;5033120;28;20378;-72
2022/10/26 04:33:03;;;;;;;5.65;3.45;;;14.00;99.90;;;;;;5033439;28;20034;-71
2022/10/26 04:35:29;;;;;;;11.23;4.55;;;14.00;99.90;;;;;;5034628;28;20045;-71
2022/10/26 04:38:03;;;;;;;6.50;3.85;;;14.10;99.90;;;;;;5045069;28;20026;-70
2022/10/26 04:40:30;;;;;;;7.88;4.15;;;14.00;99.90;;;;;;5047023;28;20081;-70
2022/10/26 04:42:56;;;;;;;12.20;4.40;;;14.10;99.90;;;;;;5033635;28;20047;-71
2022/10/26 04:45:21;;;;;;;11.93;4.40;;;14.10;99.90;;;;;;5033063;28;20535;-71
2022/10/26 04:47:47;;;;;;;10.45;4.15;;;14.00;99.90;;;;;;5033175;28;20057;-71
2022/10/26 04:50:13;;;;;;;11.77;4.40;;;14.00;99.90;;;;;;5032787;28;20491;-72
2022/10/26 04:52:39;;;;;;;11.70;4.85;;;14.00;99.90;;;;;;5032942;28;20037;-71
2022/10/26 04:55:05;;;;;;;11.45;4.70;;;14.10;99.90;;;;;;5033410;28;20021;-71
2022/10/26 04:57:35;;;;;;;8.98;4.53;;;14.00;99.90;;;;;;5033105;28;20033;-71
2022/10/26 05:00:02;;;;;;;9.40;4.13;;;14.00;99.90;;;;;;5032634;28;20331;-71
2022/10/26 05:02:28;;;;;;;10.80;4.20;;;14.00;99.90;;;;;;5032786;28;20030;-71
2022/10/26 05:04:53;;;;;;;15.70;4.82;;;14.00;99.90;;;;;;5032819;28;20029;-71
2022/10/26 05:07:19;;;;;;;6.18;3.75;;;14.10;99.90;;;;;;5032846;28;20030;-71
2022/10/26 05:09:45;;;;;;;8.90;3.95;;;14.10;99.90;;;;;;5033700;28;20104;-71
2022/10/26 05:12:10;;;;;;;10.15;4.45;;;14.10;99.90;;;;;;5036520;28;20029;-71
2022/10/26 05:14:36;;;;;;;7.45;3.85;;;14.10;99.90;;;;;;5036737;28;20033;-71
2022/10/26 05:17:02;;;;;;;10.50;4.15;;;14.10;99.90;;;;;;5036791;28;20017;-72
2022/10/26 05:19:27;;;;;;;9.95;3.92;;;14.00;99.90;;;;;;5036550;28;20029;-72
2022/10/26 05:21:53;;;;;;;10.90;4.38;;;14.00;99.90;;;;;;5036513;28;20067;-71
2022/10/26 05:24:19;;;;;;;8.77;3.85;;;14.10;99.90;;;;;;5036478;28;20021;-71
2022/10/26 05:26:44;;;;;;;8.77;4.28;;;14.10;99.90;;;;;;5036413;28;20021;-71
2022/10/26 05:29:10;;;;;;;8.23;4.57;;;14.10;99.90;;;;;;5036117;28;20046;-71
2022/10/26 05:31:35;;;;;;;11.27;3.88;;;14.10;99.90;;;;;;5036140;28;20029;-71
2022/10/26 05:34:01;;;;;;;8.73;3.80;;;14.10;99.90;;;;;;5036430;28;20025;-71
2022/10/26 05:36:27;;;;;;;6.03;3.42;;;14.10;99.90;;;;;;5049644;28;20021;-71
2022/10/26 05:38:52;;;;;;;9.50;4.28;;;14.10;99.90;;;;;;5038154;28;20099;-71
2022/10/26 05:41:18;;;;;;;9.48;3.80;;;14.10;99.90;;;;;;5036342;28;20487;-72
2022/10/26 05:43:46;;;;;;;11.10;4.53;;;14.10;99.90;;;;;;5036307;28;20376;-72
2022/10/26 05:46:12;;;;;;;11.63;4.57;;;14.10;99.90;;;;;;5036045;28;20477;-71
2022/10/26 05:48:38;;;;;;;12.43;4.78;;;14.10;99.90;;;;;;5035676;28;20029;-72
2022/10/26 05:51:03;;;;;;;8.07;3.97;;;14.10;99.90;;;;;;5036347;28;20021;-72
2022/10/26 05:53:29;;;;;;;8.20;4.10;;;14.10;99.90;;;;;;5035875;28;20477;-72
2022/10/26 05:55:56;;;;;;;8.95;3.90;;;14.10;99.90;;;;;;5035821;28;20029;-72
2022/10/26 05:58:22;;;;;;;12.85;4.35;;;14.10;99.90;;;;;;5035595;28;20029;-72
2022/10/26 06:01:16;;;;;;;8.13;3.60;;;14.10;99.90;;;;;;5035915;28;20021;-72
2022/10/26 06:03:51;;;;;;;11.30;4.22;;;14.10;99.90;;;;;;5035250;28;20062;-73
2022/10/26 06:06:17;;;;;;;6.20;3.40;;;14.20;99.90;;;;;;5035850;28;20036;-72
2022/10/26 06:08:43;;;;;;;11.13;3.78;;;14.20;99.90;;;;;;5035296;28;20112;-71
2022/10/26 06:11:12;;;;;;;8.57;4.50;;;14.20;99.90;;;;;;5035384;28;20025;-71
2022/10/26 06:13:38;;;;;;;9.65;3.67;;;14.20;99.90;;;;;;5035276;28;20053;-70
2022/10/26 06:16:29;;;;;;;10.05;3.72;;;14.20;99.90;;;;;;5035249;28;20025;-70
2022/10/26 06:19:01;;;;;;;6.30;3.35;;;14.20;99.90;;;;;;5035079;28;20553;-71
2022/10/26 06:21:44;;;;;;;10.15;3.90;;;14.20;99.90;;;;;;5034866;28;20026;-71
2022/10/26 06:24:35;;;;;;;16.95;6.30;;;14.20;99.90;;;;;;5035301;28;20026;-71
2022/10/26 06:27:26;;;;;;;12.35;4.30;;;14.20;99.90;;;;;;5035275;28;20060;-70
2022/10/26 06:30:08;;;;;;;9.15;3.83;;;14.20;99.90;;;;;;5035438;28;20129;-71
2022/10/26 06:32:35;;;;;;;9.20;3.65;;;14.20;99.90;;;;;;5040425;28;20093;-71
2022/10/26 06:35:38;;;;;;;10.38;3.47;;;14.20;99.90;;;;;;5048825;28;20037;-71
2022/10/26 06:38:08;;;;;;;10.02;3.67;;;14.20;99.90;;;;;;5035020;28;20029;-71
2022/10/26 06:40:36;;;;;;;10.73;4.43;;;14.20;99.90;;;;;;5034994;28;20121;-77
2022/10/26 06:43:02;;;;;;;9.95;4.18;;;14.20;99.90;;;;;;5035453;28;20029;-77
2022/10/26 06:45:28;;;;;;;7.57;3.88;;;14.30;99.90;;;;;;5034745;28;20013;-77
2022/10/26 06:48:02;;;;;;;10.27;3.75;;;14.20;99.90;;;;;;5035345;28;20113;-77
2022/10/26 06:50:38;;;;;;;6.38;3.47;;;14.20;99.90;;;;;;5035182;28;20377;-77
2022/10/26 06:53:30;;;;;;;9.05;4.18;;;14.30;99.90;;;;;;5035023;28;20037;-76
2022/10/26 06:55:58;;;;;;;9.70;3.90;;;14.30;99.90;;;;;;5034413;28;20051;-76
2022/10/26 06:58:29;;;;;;;14.27;4.20;;;14.30;99.90;;;;;;5034704;28;20033;-76
2022/10/26 07:00:55;;;;;;;9.20;3.75;;;14.30;99.90;;;;;;5034901;28;20021;-75
2022/10/26 07:03:21;;;;;;;7.13;3.63;;;14.30;99.90;;;;;;5034945;28;20040;-75
2022/10/26 07:05:47;;;;;;;7.38;3.67;;;14.30;99.90;;;;;;5034806;28;20373;-76
2022/10/26 07:08:13;;;;;;;7.30;3.58;;;14.30;99.90;;;;;;5034278;28;20029;-76
2022/10/26 07:10:39;;;;;;;10.82;3.45;;;14.30;99.90;;;;;;5034494;28;20029;-76
2022/10/26 07:13:05;;;;;;;8.07;3.20;;;14.30;99.90;;;;;;5034717;28;20029;-77
2022/10/26 07:15:32;;;;;;;8.68;3.65;;;14.40;99.90;;;;;;5034409;28;20030;-77
2022/10/26 07:17:57;;;;;;;7.43;3.45;;;14.40;99.90;;;;;;5034585;28;20163;-77
2022/10/26 07:20:23;;;;;;;9.48;4.10;;;14.40;99.90;;;;;;5034515;28;20506;-76
2022/10/26 07:22:53;;;;;;;10.05;4.00;;;14.40;99.90;;;;;;5034264;28;20470;-76
2022/10/26 07:25:19;;;;;;;10.38;3.67;;;14.50;99.90;;;;;;5034577;28;20115;-76
2022/10/26 07:27:45;;;;;;;8.07;3.50;;;14.50;99.90;;;;;;5035286;28;20034;-77
2022/10/26 07:30:11;;;;;;;8.20;3.85;;;14.50;99.90;;;;;;5047016;28;20033;-75
2022/10/26 07:32:37;;;;;;;7.35;3.63;;;14.60;99.90;;;;;;5043531;28;20073;-76
2022/10/26 07:35:03;;;;;;;6.25;3.15;;;14.60;99.90;;;;;;5036323;28;20060;-77
2022/10/26 07:37:29;;;;;;;8.20;3.53;;;14.60;99.90;;;;;;5034249;28;20029;-77
2022/10/26 07:39:54;;;;;;;10.52;3.72;;;14.70;99.90;;;;;;5033841;28;20075;-77
2022/10/26 07:42:20;;;;;;;9.55;3.83;;;14.70;99.90;;;;;;5034000;28;20064;-77
2022/10/26 07:44:45;;;;;;;10.95;3.75;;;14.70;99.90;;;;;;5034075;28;20017;-77
2022/10/26 07:47:11;;;;;;;8.52;3.60;;;14.70;99.90;;;;;;5034113;28;20064;-75
2022/10/26 07:49:36;;;;;;;7.20;2.90;;;14.70;99.90;;;;;;5033828;28;20021;-77
2022/10/26 07:52:02;;;;;;;8.45;3.30;;;14.80;99.90;;;;;;5033769;28;20113;-76
2022/10/26 07:54:28;;;;;;;11.05;3.55;;;14.80;99.90;;;;;;5033902;28;20022;-75
2022/10/26 07:56:53;;;;;;;6.25;2.80;;;14.80;99.90;;;;;;5033414;28;20025;-76
2022/10/26 07:59:19;;;;;;;9.75;3.20;;;14.80;99.90;;;;;;5033800;28;20017;-77
2022/10/26 08:01:45;;;;;;;6.82;2.92;;;14.80;99.90;;;;;;5033982;28;20022;-77
2022/10/26 08:04:10;;;;;;;12.32;2.80;;;14.90;99.90;;;;;;5033701;28;20036;-77
2022/10/26 08:06:36;;;;;;;6.50;3.17;;;14.90;99.90;;;;;;5033620;28;20021;-77
2022/10/26 08:09:02;;;;;;;9.15;3.10;;;15.00;99.90;;;;;;5033806;28;20037;-77
2022/10/26 08:11:28;;;;;;;6.18;2.45;;;15.00;99.90;;;;;;5033666;28;20036;-77
2022/10/26 08:13:54;;;;;;;7.78;3.15;;;15.00;99.90;;;;;;5033681;28;20621;-77
2022/10/26 08:16:20;;;;;;;7.55;2.70;;;15.10;99.90;;;;;;5033433;28;20040;-77
2022/10/26 08:18:50;;;;;;;8.27;2.70;;;15.10;99.90;;;;;;5033478;28;20051;-75
2022/10/26 08:21:16;;;;;;;8.45;2.92;;;15.10;99.90;;;;;;5033416;28;20486;-76
2022/10/26 08:23:42;;;;;;;5.88;2.70;;;15.20;99.90;;;;;;5033778;28;20043;-76
2022/10/26 08:26:14;;;;;;;10.93;2.67;;;15.20;99.90;;;;;;5043186;28;20032;-74
2022/10/26 08:28:40;;;;;;;9.10;2.65;;;15.30;99.90;;;;;;5045758;28;20417;-75
2022/10/26 08:31:06;;;;;;;4.32;2.45;;;15.40;99.90;;;;;;5033722;28;20022;-76
2022/10/26 08:33:32;;;;;;;5.05;2.28;;;15.40;99.90;;;;;;5033156;28;20116;-76
2022/10/26 08:35:59;;;;;;;8.32;2.30;;;15.40;99.90;;;;;;5033737;28;20104;-76
2022/10/26 08:38:25;;;;;;;6.22;2.45;;;15.50;99.90;;;;;;5033322;28;20386;-76
2022/10/26 08:40:54;;;;;;;6.45;2.58;;;15.60;99.90;;;;;;5032851;28;20026;-76
2022/10/26 08:43:35;;;;;;;6.55;2.50;;;15.70;99.90;;;;;;5033984;28;20049;-76
2022/10/26 08:46:12;;;;;;;7.15;2.55;;;15.80;99.90;;;;;;5037458;28;20030;-76
2022/10/26 08:48:44;;;;;;;4.97;2.33;;;15.90;99.90;;;;;;5037512;28;20022;-76
2022/10/26 08:51:15;;;;;;;6.75;2.08;;;16.10;99.90;;;;;;5037272;28;20025;-76
2022/10/26 08:53:49;;;;;;;3.67;1.65;;;16.20;99.90;;;;;;5036925;28;20038;-76
2022/10/26 08:56:23;;;;;;;6.80;1.25;;;16.30;99.90;;;;;;5037099;28;20107;-76
2022/10/26 08:58:57;;;;;;;3.75;1.30;;;16.50;99.70;;;;;;5037396;28;20083;-76
2022/10/26 09:01:23;;;;;;;3.90;1.30;;;16.70;99.60;;;;;;5036873;28;20087;-77
2022/10/26 09:03:49;;;;;;;7.38;1.40;;;16.80;99.50;;;;;;5036756;28;20034;-76
2022/10/26 09:06:34;;;;;;;5.15;1.15;;;17.00;99.50;;;;;;5037162;28;20104;-77
2022/10/26 09:09:10;;;;;;;5.25;1.00;;;17.20;99.30;;;;;;5037079;28;20025;-76
2022/10/26 09:11:46;;;;;;;7.55;1.25;;;17.40;99.00;;;;;;5036757;28;20021;-77
2022/10/26 09:14:18;;;;;;;5.47;0.90;;;17.50;98.80;;;;;;5036844;28;20484;-76
2022/10/26 09:17:11;;;;;;;4.50;0.70;;;17.50;98.60;;;;;;5036860;28;20021;-77
2022/10/26 09:20:03;;;;;;;8.45;1.20;;;17.60;98.50;;;;;;5036972;28;20021;-75
2022/10/26 09:22:41;;;;;;;3.42;0.80;;;17.70;98.20;;;;;;5042020;28;20094;-73
2022/10/26 09:25:19;;;;;;;3.95;1.00;;;17.80;98.30;;;;;;5044112;28;20045;-76
2022/10/26 09:28:11;;;;;;;5.90;1.20;;;17.90;98.20;;;;;;5036748;28;20029;-76
2022/10/26 09:30:37;;;;;;;11.30;1.40;;;17.90;98.00;;;;;;5032996;28;20045;-76
2022/10/26 09:33:13;;;;;;;5.90;1.33;;;17.80;97.50;;;;;;5036177;28;20033;-76
2022/10/26 09:35:55;;;;;;;4.57;1.27;;;17.80;97.40;;;;;;5036784;28;20037;-76
2022/10/26 09:38:27;;;;;;;4.57;1.33;;;17.90;97.60;;;;;;5036407;28;20123;-77
2022/10/26 09:40:58;;;;;;;9.30;1.45;;;17.90;97.60;;;;;;5036598;28;20025;-77
2022/10/26 09:43:43;;;;;;;5.68;1.17;;;17.90;97.70;;;;;;5036112;28;20040;-77
2022/10/26 09:46:26;;;;;;;7.63;1.50;;;18.00;97.70;;;;;;5036380;28;20385;-76
2022/10/26 09:49:05;;;;;;;5.28;1.40;;;18.00;97.50;;;;;;5035988;28;20029;-76
2022/10/26 09:51:38;;;;;;;7.75;1.67;;;18.10;97.50;;;;;;5035844;28;20048;-75
2022/10/26 09:54:13;;;;;;;3.35;1.70;;;18.20;97.30;;;;;;5035650;28;20465;-78
2022/10/26 09:56:40;;;;;;;5.32;1.65;;;18.20;97.20;;;;;;5035552;28;20057;-76
2022/10/26 09:59:06;;;;;;;5.25;1.73;;;18.30;97.00;;;;;;5035764;28;20032;-76
2022/10/26 10:01:35;;;;;;;5.93;1.73;;;18.40;96.90;;;;;;5035781;28;20167;-76
2022/10/26 10:04:15;;;;;;;5.07;1.85;;;18.50;96.90;;;;;;5035675;28;20034;-77
2022/10/26 10:06:45;;;;;;;4.38;1.85;;;18.60;96.80;;;;;;5035575;28;20017;-77
2022/10/26 10:09:13;;;;;;;6.68;2.40;;;18.70;96.80;;;;;;5036147;28;20052;-76
2022/10/26 10:11:41;;;;;;;6.20;1.95;;;18.60;96.50;;;;;;5035654;28;20030;-76
2022/10/26 10:14:12;;;;;;;6.43;2.03;;;18.70;96.50;;;;;;5034215;28;20029;-76
2022/10/26 10:16:38;;;;;;;7.97;2.10;;;18.60;96.60;;;;;;5035713;28;20108;-76
2022/10/26 10:19:03;;;;;;;4.47;2.10;;;18.60;96.60;;;;;;5044607;28;20061;-73
2022/10/26 10:21:37;;;;;;;8.85;2.17;;;18.60;96.80;;;;;;5038737;28;20025;-76
2022/10/26 10:24:22;;;;;;;3.50;1.70;;;18.60;96.80;;;;;;5035336;28;20374;-77
2022/10/26 10:27:15;;;;;;;6.90;2.00;;;18.60;96.90;;;;;;5035313;28;20104;-77
2022/10/26 10:29:50;;;;;;;5.80;1.70;;;18.70;96.90;;;;;;5034225;28;20056;-76
2022/10/26 10:32:21;;;;;;;8.32;2.10;;;18.70;96.70;;;;;;5035324;28;20350;-77
2022/10/26 10:34:51;;;;;;;6.90;2.00;;;18.70;96.60;;;;;;5035065;28;20526;-77
2022/10/26 10:37:33;;;;;;;4.00;1.45;;;18.70;96.70;;;;;;5034901;28;20397;-77
2022/10/26 10:40:03;;;;;;;7.05;2.15;;;18.80;96.80;;;;;;5035044;28;20040;-77
2022/10/26 10:42:38;;;;;;;6.10;1.52;;;18.90;96.80;;;;;;5035340;28;20075;-77
2022/10/26 10:45:05;;;;;;;7.68;1.70;;;19.00;96.80;;;;;;5035007;28;20061;-77
2022/10/26 10:47:33;;;;;;;5.30;1.75;;;19.10;97.00;;;;;;5034748;28;20396;-77
2022/10/26 10:50:04;;;;;;;5.22;1.50;;;19.10;96.90;;;;;;5034914;28;20029;-76
2022/10/26 10:52:32;;;;;;;5.78;1.75;;;19.20;96.50;;;;;;5035104;28;20116;-78
2022/10/26 10:55:19;;;;;;;5.45;1.55;;;19.30;96.40;;;;;;5034843;28;20112;-81
2022/10/26 10:58:07;;;;;;;9.77;2.13;;;19.30;96.30;;;;;;5034446;28;20112;-75
2022/10/26 11:00:36;;;;;;;5.07;1.80;;;19.30;96.10;;;;;;5034788;28;20022;-76
2022/10/26 11:03:23;;;;;;;8.45;2.38;;;19.30;96.30;;;;;;5034700;28;20030;-75
2022/10/26 11:06:17;;;;;;;8.75;1.77;;;19.30;96.40;;;;;;5033872;28;20048;-76
2022/10/26 11:09:02;;;;;;;6.82;1.77;;;19.40;96.40;;;;;;5033302;28;20026;-75
2022/10/26 11:11:31;;;;;;;3.83;1.20;;;19.40;96.30;;;;;;5034473;28;20043;-75
2022/10/26 11:14:05;;;;;;;9.60;1.90;;;19.40;96.30;;;;;;5036109;28;20034;-75
2022/10/26 11:16:41;;;;;;;6.20;1.73;;;19.50;96.20;;;;;;5036406;28;20112;-76
2022/10/26 11:19:36;;;;;;;6.05;1.75;;;19.50;96.20;;;;;;5033760;28;20029;-77
2022/10/26 11:22:04;;;;;;;6.85;1.75;;;19.50;96.10;;;;;;5031863;28;20072;-76
2022/10/26 11:24:38;;;;;;;12.40;1.92;;;19.50;96.20;;;;;;5034331;28;20108;-76
2022/10/26 11:27:14;;;;;;;4.45;1.50;;;19.50;96.50;;;;;;5034186;28;20048;-76
2022/10/26 11:30:16;;;;;;;4.20;1.40;;;19.70;96.60;;;;;;5070390;28;20422;-74
2022/10/26 11:33:09;;;;;;;5.55;1.45;;;19.70;96.50;;;;;;5070032;28;20036;-74
2022/10/26 11:35:36;;;;;;;8.05;1.52;;;19.80;96.50;;;;;;5070461;28;20017;-75
2022/10/26 11:38:25;;;;;;;4.05;1.50;;;19.80;96.40;;;;;;5070872;28;20306;-74
2022/10/26 11:40:57;;;;;;;5.25;1.30;;;19.90;96.30;;;;;;5070163;28;20063;-74
2022/10/26 11:43:41;;;;;;;5.72;1.27;;;19.90;96.20;;;;;;5070504;28;20017;-73
2022/10/26 11:46:25;;;;;;;3.80;1.60;;;19.90;96.30;;;;;;5070199;28;20029;-75
2022/10/26 11:49:14;;;;;;;9.75;1.52;;;20.00;96.20;;;;;;5070290;28;20029;-75
2022/10/26 11:51:45;;;;;;;4.18;1.13;;;19.90;96.10;;;;;;5069944;28;20353;-75
2022/10/26 11:54:34;;;;;;;7.13;1.48;;;19.90;95.90;;;;;;5070279;28;20378;-75
2022/10/26 11:57:02;;;;;;;8.15;1.52;;;19.80;96.10;;;;;;5070169;28;20562;-75
2022/10/26 11:59:31;;;;;;;4.60;1.55;;;19.70;96.30;;;;;;5070490;28;20047;-74
2022/10/26 12:02:05;;;;;;;7.15;1.52;;;19.70;96.40;;;;;;5069881;28;20045;-71
2022/10/26 12:04:34;;;;;;;6.88;1.60;;;19.60;96.70;;;;;;5070107;28;20396;-74
2022/10/26 12:07:05;;;;;;;10.68;2.15;;;19.50;97.20;;;;;;5069741;28;20086;-75
2022/10/26 12:09:35;;;;;;;7.93;1.50;;;19.50;97.20;;;;;;5071956;28;20033;-73
2022/10/26 12:12:21;;;;;;;3.92;1.40;;;19.50;97.20;;;;;;5077545;28;20021;-75
2022/10/26 12:14:58;;;;;;;4.68;1.60;;;19.40;97.30;;;;;;5069607;28;20036;-75
2022/10/26 12:17:45;;;;;;;5.93;1.63;;;19.30;97.80;;;;;;5069275;28;20032;-74
2022/10/26 12:20:17;;;;;;;6.43;1.58;;;19.40;97.90;;;;;;5069833;28;20032;-74
2022/10/26 12:22:43;;;;;;;7.20;1.93;;;19.50;98.00;;;;;;5069756;28;20046;-74
2022/10/26 12:25:15;;;;;;;6.75;1.42;;;19.60;97.50;;;;;;5069466;28;20032;-75
2022/10/26 12:27:40;;;;;;;8.07;1.42;;;19.70;97.30;;;;;;5068940;28;20061;-75
2022/10/26 12:30:18;;;;;;;13.00;2.13;;;19.80;96.90;;;;;;5069220;28;20061;-74
2022/10/26 12:32:43;;;;;;;7.90;1.60;;;20.00;96.70;;;;;;5069462;28;20031;-74
2022/10/26 12:35:28;;;;;;;7.38;1.75;;;20.00;96.40;;;;;;5069121;28;20376;-75
2022/10/26 12:37:54;;;;;;;5.18;1.30;;;20.10;96.30;;;;;;5069508;28;20028;-74
2022/10/26 12:40:39;;;;;;;4.72;1.42;;;20.20;96.20;;;;;;5060288;28;20037;-79
2022/10/26 12:43:17;;;;;;;5.82;1.88;;;20.40;96.20;;;;;;5055626;28;20029;-74
2022/10/26 12:46:11;;;;;;;5.05;1.63;;;20.40;95.90;;;;;;5055784;28;20021;-74
2022/10/26 12:48:43;;;;;;;5.15;1.20;;;20.50;95.50;;;;;;5055817;28;20037;-75
2022/10/26 12:51:20;;;;;;;4.68;1.35;;;20.50;95.80;;;;;;5056131;28;20025;-76
2022/10/26 12:54:26;;;;;;;7.32;1.33;;;20.70;95.70;;;;;;5056255;28;20032;-77
2022/10/26 12:57:23;;;;;;;2.97;1.10;;;20.80;95.20;;;;;;5057869;28;20048;-79
2022/10/26 13:00:04;;;;;;;5.72;1.42;;;20.90;95.40;;;;;;5056400;28;20029;-76
2022/10/26 13:02:53;;;;;;;4.70;1.50;;;20.80;94.80;;;;;;5057458;28;20107;-80
2022/10/26 13:05:47;;;;;;;5.93;1.40;;;20.80;94.90;;;;;;5058209;28;20036;-77
2022/10/26 13:08:13;;;;;;;4.03;1.40;;;20.70;95.00;;;;;;5042493;28;20099;-77
2022/10/26 13:11:04;;;;;;;7.40;1.30;;;20.70;95.20;;;;;;5035767;28;20072;-74
2022/10/26 13:13:31;;;;;;;3.97;1.23;;;20.80;95.30;;;;;;5038582;28;20468;-75